Time;durP1;ratioP1;P1;durP2;ratioP2;P2;SDS_P1;SDS_P2;PMS_P1;PMS_P2;Temp;Humidity;BMP_temperature;BMP_pressure;BME280_temperature;BME280_humidity;BME280_pressure;Samples;Min_cycle;Max_cycle;Signal;HPM_P1;HPM_P2
2022/08/11 00:02:16;;;;;;;4.40;3.80;;;18.70;99.90;;;;;;5044332;28;20056;-76
2022/08/11 00:04:42;;;;;;;5.18;4.20;;;18.70;99.90;;;;;;5043249;28;20287;-75
2022/08/11 00:07:09;;;;;;;8.75;4.20;;;18.70;99.90;;;;;;5045100;28;20587;-76
2022/08/11 00:09:37;;;;;;;6.13;4.50;;;18.60;99.90;;;;;;5042274;28;20455;-75
2022/08/11 00:12:10;;;;;;;6.70;4.18;;;18.60;99.90;;;;;;5047480;28;20566;-75
2022/08/11 00:14:36;;;;;;;;;;;18.60;99.90;;;;;;5041403;28;20447;-75
2022/08/11 00:17:08;;;;;;;4.45;4.00;;;18.50;99.90;;;;;;5045545;28;19963;-75
2022/08/11 00:19:37;;;;;;;4.20;3.63;;;18.50;99.90;;;;;;5042334;28;20584;-75
2022/08/11 00:22:05;;;;;;;5.07;4.30;;;18.50;99.90;;;;;;5041999;28;20735;-74
2022/08/11 00:24:33;;;;;;;5.25;3.75;;;18.50;99.90;;;;;;5039675;28;20060;-76
2022/08/11 00:26:58;;;;;;;4.30;3.60;;;18.50;99.90;;;;;;5046154;28;20119;-75
2022/08/11 00:29:24;;;;;;;6.70;4.03;;;18.40;99.90;;;;;;5043789;28;20124;-74
2022/08/11 00:31:52;;;;;;;6.70;4.20;;;18.40;99.90;;;;;;5043358;28;20040;-76
2022/08/11 00:34:25;;;;;;;8.13;4.13;;;18.40;99.90;;;;;;5040878;28;20037;-74
2022/08/11 00:37:07;;;;;;;6.00;4.07;;;18.40;99.90;;;;;;5041237;28;20030;-74
2022/08/11 00:39:41;;;;;;;5.03;3.63;;;18.40;99.90;;;;;;5043325;28;20033;-75
2022/08/11 00:42:43;;;;;;;3.95;3.50;;;18.30;99.90;;;;;;5038657;28;20076;-75
2022/08/11 00:45:25;;;;;;;5.28;4.10;;;18.30;99.90;;;;;;5038764;28;20086;-75
2022/08/11 00:48:10;;;;;;;6.20;4.07;;;18.20;99.90;;;;;;5044813;28;20090;-75
2022/08/11 00:51:05;;;;;;;4.55;4.03;;;18.20;99.90;;;;;;5041540;28;20041;-75
2022/08/11 00:53:36;;;;;;;6.18;4.20;;;18.20;99.90;;;;;;5041748;28;20047;-75
2022/08/11 00:56:31;;;;;;;6.25;4.15;;;18.10;99.90;;;;;;5043884;28;20045;-74
2022/08/11 00:59:25;;;;;;;6.22;4.25;;;18.10;99.90;;;;;;5042098;28;20446;-74
2022/08/11 01:01:57;;;;;;;5.97;4.60;;;18.00;99.90;;;;;;5042077;28;20032;-75
2022/08/11 01:04:44;;;;;;;7.53;4.50;;;18.00;99.90;;;;;;5042156;28;20037;-74
2022/08/11 01:07:32;;;;;;;7.53;4.68;;;18.00;99.90;;;;;;5041324;28;20048;-75
2022/08/11 01:10:12;;;;;;;6.13;4.85;;;18.00;99.90;;;;;;5042057;28;20501;-75
2022/08/11 01:12:55;;;;;;;8.80;4.63;;;17.90;99.90;;;;;;5042553;28;20036;-74
2022/08/11 01:15:48;;;;;;;8.80;5.40;;;17.90;99.90;;;;;;5040172;28;20568;-75
2022/08/11 01:18:34;;;;;;;7.18;5.32;;;17.90;99.90;;;;;;5046107;28;20392;-75
2022/08/11 01:21:48;;;;;;;6.07;5.45;;;17.80;99.90;;;;;;5040344;28;20045;-75
2022/08/11 01:24:52;;;;;;;7.97;5.15;;;17.90;99.90;;;;;;5037884;28;20138;-74
2022/08/11 01:27:30;;;;;;;6.38;4.97;;;17.80;99.90;;;;;;4989118;28;20057;-74
2022/08/11 01:30:43;;;;;;;7.85;5.10;;;17.80;99.90;;;;;;4984405;28;20045;-74
2022/08/11 01:33:52;;;;;;;5.60;4.63;;;17.70;99.90;;;;;;5028090;28;20510;-75
2022/08/11 01:36:49;;;;;;;7.65;4.72;;;17.60;99.90;;;;;;5038073;28;20041;-75
2022/08/11 01:39:36;;;;;;;7.13;5.90;;;17.60;99.90;;;;;;5041272;28;20703;-74
2022/08/11 01:45:38;;;;;;;6.20;5.57;;;17.60;99.90;;;;;;5034627;28;20507;-75
2022/08/11 01:48:34;;;;;;;6.05;5.45;;;17.50;99.90;;;;;;5044307;28;20048;-75
2022/08/11 01:51:39;;;;;;;6.13;4.90;;;17.50;99.90;;;;;;5034629;28;20099;-74
2022/08/11 01:54:07;;;;;;;;;;;17.50;99.90;;;;;;5005937;28;20108;-75
2022/08/11 01:56:45;;;;;;;9.30;5.82;;;17.40;99.90;;;;;;5041009;28;19936;-75
2022/08/11 01:59:24;;;;;;;6.53;5.50;;;17.40;99.90;;;;;;5035709;28;20103;-75
2022/08/11 02:02:09;;;;;;;5.75;5.15;;;17.40;99.90;;;;;;5035733;28;20441;-75
2022/08/11 02:04:56;;;;;;;7.07;5.03;;;17.40;99.90;;;;;;5043002;28;20555;-75
2022/08/11 02:07:34;;;;;;;7.82;6.00;;;17.30;99.90;;;;;;5041271;28;20033;-75
2022/08/11 02:13:44;;;;;;;5.93;4.93;;;17.20;99.90;;;;;;5035797;28;20042;-75
2022/08/11 02:16:29;;;;;;;5.45;4.60;;;17.20;99.90;;;;;;5039140;28;20041;-75
2022/08/11 02:25:31;;;;;;;7.53;6.20;;;17.10;99.90;;;;;;5042902;28;20053;-75
2022/08/11 02:28:22;;;;;;;7.80;6.47;;;17.00;99.90;;;;;;5038623;28;20464;-75
2022/08/11 02:34:14;;;;;;;4.82;4.30;;;17.00;99.90;;;;;;5043301;28;20033;-75
2022/08/11 02:37:15;;;;;;;6.13;5.38;;;16.90;99.90;;;;;;5040247;28;20410;-75
2022/08/11 02:39:49;;;;;;;5.63;4.75;;;16.90;99.90;;;;;;5040147;28;20051;-74
2022/08/11 02:42:23;;;;;;;6.30;4.88;;;16.90;99.90;;;;;;5037005;28;20040;-76
2022/08/11 02:44:58;;;;;;;9.57;5.72;;;16.90;99.90;;;;;;5039588;28;20045;-75
2022/08/11 02:51:18;;;;;;;7.50;5.93;;;16.80;99.90;;;;;;5040347;28;20051;-74
2022/08/11 02:54:06;;;;;;;6.43;5.82;;;16.80;99.90;;;;;;5036682;28;20049;-74
2022/08/11 02:56:59;;;;;;;5.47;4.50;;;16.80;99.90;;;;;;5038896;28;20039;-74
2022/08/11 02:59:50;;;;;;;5.70;4.82;;;16.70;99.90;;;;;;5040757;28;20107;-75
2022/08/11 03:02:15;;;;;;;8.32;5.80;;;16.60;99.90;;;;;;5038756;28;20056;-74
2022/08/11 03:05:10;;;;;;;7.38;5.50;;;16.60;99.90;;;;;;5041593;28;20116;-74
2022/08/11 03:07:39;;;;;;;6.13;5.53;;;16.60;99.90;;;;;;5038200;28;20498;-75
2022/08/11 03:10:40;;;;;;;6.93;6.22;;;16.50;99.90;;;;;;5040573;28;20073;-75
2022/08/11 03:19:22;;;;;;;8.00;6.95;;;16.40;99.90;;;;;;5039070;28;20053;-75
2022/08/11 03:21:50;;;;;;;10.13;7.22;;;16.40;99.90;;;;;;5034569;28;20448;-74
2022/08/11 03:24:30;;;;;;;8.65;7.68;;;16.50;99.90;;;;;;5035098;28;20124;-74
2022/08/11 03:27:09;;;;;;;8.23;6.90;;;16.50;99.90;;;;;;5035255;28;20044;-74
2022/08/11 03:30:12;;;;;;;9.25;6.90;;;16.40;99.90;;;;;;5041133;28;20099;-75
2022/08/11 03:36:14;;;;;;;10.85;6.22;;;16.40;99.90;;;;;;5045385;28;20402;-74
2022/08/11 03:39:01;;;;;;;7.57;6.50;;;16.30;99.90;;;;;;5040899;28;20127;-76
2022/08/11 03:41:52;;;;;;;7.45;6.65;;;16.30;99.90;;;;;;5042665;28;20437;-74
2022/08/11 03:44:34;;;;;;;8.48;6.53;;;16.30;99.90;;;;;;5046613;28;20059;-75
2022/08/11 03:47:28;;;;;;;69.20;8.35;;;16.20;99.90;;;;;;5045101;28;20052;-75
2022/08/11 03:50:17;;;;;;;7.70;6.28;;;16.30;99.90;;;;;;5045958;28;20045;-74
2022/08/11 03:53:26;;;;;;;6.78;5.60;;;16.20;99.90;;;;;;5045546;28;20064;-74
2022/08/11 03:56:07;;;;;;;5.88;5.20;;;16.10;99.90;;;;;;5037947;28;20380;-75
2022/08/11 03:58:45;;;;;;;4.78;3.75;;;16.20;99.90;;;;;;5037683;28;20069;-75
2022/08/11 04:01:48;;;;;;;6.20;4.90;;;16.10;99.90;;;;;;5038722;28;20396;-76
2022/08/11 04:04:43;;;;;;;7.55;5.80;;;16.10;99.90;;;;;;5040899;28;20059;-75
2022/08/11 04:07:20;;;;;;;8.03;6.13;;;16.10;99.90;;;;;;5039014;28;20454;-75
2022/08/11 04:10:23;;;;;;;12.30;7.18;;;16.10;99.90;;;;;;5042219;28;20073;-75
2022/08/11 04:13:07;;;;;;;8.43;6.50;;;16.10;99.90;;;;;;5043433;28;20040;-75
2022/08/11 04:16:09;;;;;;;46.97;7.68;;;16.10;99.90;;;;;;5042807;28;20048;-74
2022/08/11 04:19:02;;;;;;;9.15;7.15;;;16.10;99.90;;;;;;5042646;28;20092;-74
2022/08/11 04:21:40;;;;;;;8.63;7.40;;;16.10;99.90;;;;;;5041865;28;20123;-75
2022/08/11 04:24:26;;;;;;;9.77;7.00;;;16.10;99.90;;;;;;5042340;28;20530;-74
2022/08/11 04:27:18;;;;;;;13.15;7.57;;;16.10;99.90;;;;;;5040662;28;20108;-75
2022/08/11 04:29:57;;;;;;;10.43;8.18;;;16.20;99.90;;;;;;5041922;28;20450;-74
2022/08/11 04:32:47;;;;;;;12.27;8.43;;;16.20;99.90;;;;;;5042773;28;20076;-74
2022/08/11 04:35:25;;;;;;;11.40;8.93;;;16.30;99.90;;;;;;5038993;28;20029;-74
2022/08/11 04:38:12;;;;;;;10.40;9.30;;;16.30;99.90;;;;;;5043484;28;20036;-75
2022/08/11 04:41:18;;;;;;;13.10;9.15;;;16.40;99.90;;;;;;5041298;28;20103;-75
2022/08/11 04:44:10;;;;;;;13.45;8.85;;;16.50;99.90;;;;;;5042811;28;20033;-74
2022/08/11 04:46:54;;;;;;;11.85;9.13;;;16.60;99.90;;;;;;5037507;28;20044;-75
2022/08/11 05:02:16;;;;;;;11.98;8.63;;;17.00;99.90;;;;;;5039146;28;20410;-74
2022/08/11 05:05:31;;;;;;;10.73;7.95;;;17.10;99.90;;;;;;5044656;28;20041;-74
2022/08/11 05:08:41;;;;;;;10.38;8.75;;;17.20;99.90;;;;;;5043841;28;20593;-75
2022/08/11 05:11:18;;;;;;;10.82;7.72;;;17.30;99.90;;;;;;5039579;28;20045;-74
2022/08/11 05:36:48;;;;;;;10.57;8.52;;;18.20;99.90;;;;;;5036981;28;20076;-76
2022/08/11 05:56:21;;;;;;;12.63;9.30;;;19.20;99.90;;;;;;5038401;28;20045;-74
2022/08/11 05:58:52;;;;;;;11.10;8.80;;;19.30;99.90;;;;;;5037754;28;20045;-76
2022/08/11 06:01:25;;;;;;;12.65;8.90;;;19.40;99.90;;;;;;5042606;28;20079;-76
2022/08/11 06:06:39;;;;;;;11.70;8.82;;;19.70;99.90;;;;;;5042672;28;20120;-76
2022/08/11 06:09:06;;;;;;;11.10;9.18;;;19.80;99.90;;;;;;5041483;28;20505;-76
2022/08/11 06:11:41;;;;;;;10.98;9.20;;;19.90;99.90;;;;;;5042265;28;20036;-76
2022/08/11 06:14:09;;;;;;;11.45;8.82;;;19.90;99.90;;;;;;5038747;28;20087;-76
2022/08/11 06:16:36;;;;;;;11.25;9.00;;;20.00;99.90;;;;;;5042901;28;20034;-76
2022/08/11 06:19:03;;;;;;;10.02;8.75;;;20.00;99.90;;;;;;5042415;28;20040;-75
2022/08/11 06:21:33;;;;;;;11.68;8.98;;;20.20;99.90;;;;;;5040160;28;20040;-76
2022/08/11 06:24:00;;;;;;;10.75;7.93;;;20.30;99.90;;;;;;5038630;28;20072;-76
2022/08/11 06:26:26;;;;;;;10.00;8.57;;;20.40;99.90;;;;;;5034337;28;20044;-75
2022/08/11 06:28:58;;;;;;;12.73;8.65;;;20.40;99.90;;;;;;5041423;28;20055;-75
2022/08/11 06:31:25;;;;;;;10.95;8.40;;;20.50;99.90;;;;;;5041115;28;20044;-76
2022/08/11 06:34:14;;;;;;;10.05;7.82;;;20.60;99.90;;;;;;5040230;28;20033;-75
2022/08/11 06:36:54;;;;;;;9.02;7.45;;;20.70;99.90;;;;;;5037943;28;20033;-76
2022/08/11 06:39:49;;;;;;;10.25;8.23;;;20.90;99.90;;;;;;5039480;28;21773;-75
2022/08/11 06:42:50;;;;;;;10.52;7.22;;;21.00;99.90;;;;;;5042438;28;20120;-75
2022/08/11 06:45:25;;;;;;;9.55;7.22;;;21.10;99.90;;;;;;5016948;28;20210;-75
2022/08/11 06:47:52;;;;;;;8.32;6.80;;;21.30;99.90;;;;;;5037713;28;20052;-76
2022/08/11 06:53:08;;;;;;;8.00;6.32;;;21.50;99.90;;;;;;5038758;28;20041;-76
2022/08/11 07:01:13;;;;;;;8.82;6.22;;;21.90;99.90;;;;;;5034072;28;20128;-77
2022/08/11 07:03:46;;;;;;;8.45;6.22;;;22.00;99.90;;;;;;5042979;28;20138;-76
2022/08/11 07:06:37;;;;;;;14.27;5.80;;;22.10;99.90;;;;;;5038525;28;20025;-77
2022/08/11 07:15:42;;;;;;;10.77;5.30;;;22.50;99.90;;;;;;5041441;28;20546;-76
2022/08/11 07:29:59;;;;;;;6.43;4.78;;;23.20;99.90;;;;;;5044621;28;20048;-77
2022/08/11 07:32:31;;;;;;;7.97;4.38;;;23.40;99.90;;;;;;5034175;28;20036;-77
2022/08/11 07:35:12;;;;;;;7.20;4.22;;;23.60;99.90;;;;;;5034655;28;20042;-76
2022/08/11 07:37:46;;;;;;;6.57;4.07;;;23.70;99.90;;;;;;5035708;28;20046;-76
2022/08/11 07:40:12;;;;;;;5.93;3.95;;;23.80;99.90;;;;;;5034672;28;20037;-75
2022/08/11 07:42:40;;;;;;;6.57;3.85;;;23.90;99.90;;;;;;5033371;28;20484;-76
2022/08/11 07:53:29;;;;;;;6.65;3.55;;;24.40;99.90;;;;;;5014704;28;20419;-77
2022/08/11 07:55:57;;;;;;;6.43;2.97;;;24.50;99.90;;;;;;5032962;28;20055;-76
2022/08/11 08:17:51;;;;;;;4.95;2.70;;;25.40;99.90;;;;;;5017045;28;20034;-77
2022/08/11 08:20:24;;;;;;;5.60;2.70;;;25.50;99.90;;;;;;5021469;28;20041;-77
2022/08/11 08:22:55;;;;;;;8.48;2.70;;;25.60;99.90;;;;;;5017468;28;20045;-75
2022/08/11 08:25:30;;;;;;;5.32;2.80;;;25.70;99.90;;;;;;5019301;28;20173;-76
2022/08/11 08:27:58;;;;;;;7.00;2.60;;;25.80;99.90;;;;;;5048482;28;20048;-75
2022/08/11 08:33:32;;;;;;;3.63;2.50;;;25.90;99.90;;;;;;5016673;28;20675;-76
2022/08/11 08:36:15;;;;;;;5.38;2.20;;;25.90;99.90;;;;;;5027418;28;20053;-76
2022/08/11 08:38:49;;;;;;;5.57;2.50;;;26.00;99.90;;;;;;5022038;28;20460;-76
2022/08/11 08:41:25;;;;;;;3.20;2.28;;;26.10;99.90;;;;;;5020371;28;20481;-75
2022/08/11 08:43:55;;;;;;;5.50;2.25;;;26.10;99.90;;;;;;5027631;28;20045;-76
2022/08/11 08:46:26;;;;;;;3.33;2.10;;;26.20;99.90;;;;;;5037596;28;20419;-76
2022/08/11 08:48:53;;;;;;;3.83;2.13;;;26.20;99.90;;;;;;5040045;28;20041;-75
2022/08/11 08:51:35;;;;;;;3.63;2.10;;;26.30;99.90;;;;;;5027008;28;20038;-75
2022/08/11 08:54:07;;;;;;;3.88;2.05;;;26.30;99.90;;;;;;5027145;28;20120;-76
2022/08/11 08:56:38;;;;;;;4.07;1.95;;;26.40;99.90;;;;;;5036155;28;20048;-76
2022/08/11 08:59:04;;;;;;;4.97;2.15;;;26.40;99.90;;;;;;5033717;28;20037;-76
2022/08/11 09:01:37;;;;;;;6.20;1.83;;;26.40;99.90;;;;;;5031545;28;20047;-74
2022/08/11 09:04:07;;;;;;;4.30;1.73;;;26.50;99.90;;;;;;5036461;28;20084;-75
2022/08/11 09:06:38;;;;;;;4.28;1.75;;;26.50;99.90;;;;;;5035790;28;20064;-75
2022/08/11 09:09:08;;;;;;;3.22;1.60;;;26.50;99.90;;;;;;5028800;28;20407;-75
2022/08/11 09:11:54;;;;;;;4.07;1.65;;;26.50;99.90;;;;;;5035031;28;20398;-74
2022/08/11 09:14:23;;;;;;;6.18;1.70;;;26.50;99.90;;;;;;5037432;28;20047;-74
2022/08/11 09:16:51;;;;;;;3.75;2.03;;;26.50;99.90;;;;;;5046313;28;20083;-75
2022/08/11 09:19:20;;;;;;;4.95;1.80;;;26.50;99.90;;;;;;5033578;28;20094;-75
2022/08/11 09:27:22;;;;;;;3.60;1.70;;;26.50;99.90;;;;;;5043206;28;20135;-74
2022/08/11 09:29:49;;;;;;;3.22;1.60;;;26.50;99.90;;;;;;5045233;28;20163;-74
2022/08/11 09:32:22;;;;;;;2.10;1.70;;;26.50;99.90;;;;;;5044081;28;20033;-74
2022/08/11 09:34:50;;;;;;;3.70;1.80;;;26.50;99.90;;;;;;5033728;28;20064;-74
2022/08/11 09:45:32;;;;;;;6.95;1.90;;;26.60;99.70;;;;;;5045096;28;20045;-74
2022/08/11 09:47:58;;;;;;;3.25;1.55;;;26.70;99.50;;;;;;5034338;28;20414;-74
2022/08/11 09:50:24;;;;;;;4.82;1.70;;;26.70;99.50;;;;;;5039403;28;20050;-74
2022/08/11 09:52:50;;;;;;;5.05;1.50;;;26.80;99.10;;;;;;5042096;28;20037;-73
2022/08/11 09:55:17;;;;;;;3.65;1.85;;;26.80;98.80;;;;;;5034565;28;20041;-74
2022/08/11 10:00:36;;;;;;;3.40;1.58;;;26.90;95.30;;;;;;5043250;28;20053;-74
2022/08/11 10:03:06;;;;;;;3.63;1.50;;;27.10;97.00;;;;;;5030543;28;20047;-73
2022/08/11 10:08:21;;;;;;;2.97;1.50;;;27.10;97.20;;;;;;5032623;28;20054;-73
2022/08/11 10:10:48;;;;;;;7.20;1.95;;;27.30;96.90;;;;;;5020420;28;20509;-74
2022/08/11 10:13:17;;;;;;;4.18;1.50;;;27.40;96.40;;;;;;5041275;28;20049;-74
2022/08/11 10:15:45;;;;;;;4.63;1.60;;;27.40;96.30;;;;;;5031621;28;20421;-73
2022/08/11 10:21:13;;;;;;;2.92;1.27;;;27.50;96.00;;;;;;5023940;28;20117;-74
2022/08/11 10:34:48;;;;;;;3.08;1.65;;;27.90;94.50;;;;;;5041204;28;20102;-74
2022/08/11 10:37:15;;;;;;;4.65;1.50;;;28.00;94.60;;;;;;5040470;28;20072;-74
2022/08/11 10:39:43;;;;;;;4.03;1.60;;;28.20;94.60;;;;;;5030575;28;20053;-74
2022/08/11 10:44:56;;;;;;;5.03;1.60;;;28.20;93.20;;;;;;5029570;28;20045;-73
2022/08/11 10:47:35;;;;;;;3.05;1.40;;;28.30;93.20;;;;;;5028641;28;20080;-74
2022/08/11 10:58:48;;;;;;;2.53;1.50;;;28.70;92.80;;;;;;5029336;28;20049;-74
2022/08/11 11:01:26;;;;;;;3.40;1.50;;;28.80;92.90;;;;;;5041174;28;20029;-73
2022/08/11 11:03:56;;;;;;;4.97;1.77;;;29.00;92.30;;;;;;5021363;28;20072;-74
2022/08/11 11:06:34;;;;;;;4.88;1.30;;;29.10;92.20;;;;;;5025410;28;20061;-73
2022/08/11 11:09:03;;;;;;;2.50;1.30;;;29.10;91.70;;;;;;5025186;28;20099;-74
2022/08/11 11:19:39;;;;;;;3.33;1.50;;;29.50;91.20;;;;;;5026349;28;20163;-76
2022/08/11 11:25:20;;;;;;;2.17;1.33;;;29.70;90.30;;;;;;5041702;28;20045;-74
2022/08/11 11:28:06;;;;;;;6.85;1.63;;;29.80;87.00;;;;;;5029413;28;20037;-74
2022/08/11 11:30:43;;;;;;;2.22;1.30;;;29.80;90.00;;;;;;5026506;28;20472;-75
2022/08/11 11:33:40;;;;;;;3.30;1.23;;;30.00;89.50;;;;;;5033350;28;20415;-75
2022/08/11 11:36:25;;;;;;;4.68;1.50;;;30.20;87.50;;;;;;5036982;28;20045;-74
2022/08/11 11:38:55;;;;;;;1.80;1.10;;;30.40;88.00;;;;;;5025868;28;20112;-74
2022/08/11 11:41:25;;;;;;;1.85;1.20;;;30.60;88.30;;;;;;5017953;28;20380;-74
2022/08/11 11:43:56;;;;;;;6.13;1.30;;;30.70;87.20;;;;;;5021405;28;20029;-74
2022/08/11 11:46:27;;;;;;;4.00;1.30;;;30.80;85.80;;;;;;5017191;28;20044;-75
2022/08/11 11:48:57;;;;;;;2.65;1.40;;;30.80;84.70;;;;;;5017218;28;20038;-74
2022/08/11 11:51:25;;;;;;;4.82;1.50;;;30.90;84.50;;;;;;5013395;28;20081;-74
2022/08/11 11:53:52;;;;;;;6.75;1.50;;;31.10;85.20;;;;;;5018079;28;20412;-74
2022/08/11 11:56:20;;;;;;;2.67;1.17;;;31.30;84.90;;;;;;5024138;28;20582;-75
2022/08/11 12:01:42;;;;;;;2.17;1.10;;;31.50;83.20;;;;;;5015764;28;20059;-75
2022/08/11 12:04:10;;;;;;;2.05;1.08;;;31.60;82.90;;;;;;5027475;28;20048;-75
2022/08/11 12:06:36;;;;;;;2.40;1.00;;;31.80;82.80;;;;;;5017626;28;20088;-74
2022/08/11 12:09:03;;;;;;;7.72;1.50;;;31.90;81.80;;;;;;5022287;28;20034;-74
2022/08/11 12:14:19;;;;;;;2.72;1.00;;;32.10;80.10;;;;;;5024677;28;20045;-75
2022/08/11 12:16:46;;;;;;;3.58;1.20;;;32.30;80.30;;;;;;5033674;28;20033;-75
2022/08/11 12:19:16;;;;;;;2.17;1.25;;;32.40;79.40;;;;;;5024046;28;20405;-75
2022/08/11 12:27:24;;;;;;;3.38;1.40;;;32.80;79.60;;;;;;5030077;28;20050;-74
2022/08/11 12:29:56;;;;;;;5.53;1.20;;;32.80;78.90;;;;;;5033291;28;20456;-75
2022/08/11 12:32:26;;;;;;;2.42;1.30;;;32.90;77.80;;;;;;5036323;28;20491;-74
2022/08/11 12:34:52;;;;;;;2.72;1.20;;;33.00;78.00;;;;;;5033106;28;20239;-75
2022/08/11 12:37:23;;;;;;;2.88;1.20;;;33.10;76.60;;;;;;5029452;28;20041;-74
2022/08/11 12:45:28;;;;;;;3.67;1.33;;;33.10;75.60;;;;;;5033217;28;20045;-75
2022/08/11 12:53:59;;;;;;;2.13;0.90;;;33.50;74.20;;;;;;5021710;28;20116;-74
2022/08/11 13:04:57;;;;;;;2.13;1.20;;;33.80;72.60;;;;;;5018661;28;20496;-78
2022/08/11 13:07:27;;;;;;;2.78;1.17;;;33.90;73.00;;;;;;5014632;28;20044;-75
2022/08/11 13:09:54;;;;;;;2.85;1.30;;;34.00;74.00;;;;;;5013642;28;20044;-76
2022/08/11 13:15:12;;;;;;;4.03;1.33;;;34.10;73.20;;;;;;5017775;28;20587;-76
2022/08/11 13:17:38;;;;;;;2.95;1.20;;;34.20;73.20;;;;;;5020106;28;20042;-76
2022/08/11 13:20:07;;;;;;;2.17;1.20;;;34.20;73.00;;;;;;5032839;28;20404;-77
2022/08/11 13:22:35;;;;;;;2.78;1.20;;;34.30;73.70;;;;;;5042725;28;20052;-76
2022/08/11 13:25:03;;;;;;;2.55;1.23;;;34.30;73.20;;;;;;5035954;28;20050;-74
2022/08/11 13:27:29;;;;;;;4.40;1.20;;;34.40;73.50;;;;;;5032090;28;20048;-74
2022/08/11 13:32:43;;;;;;;2.05;1.10;;;34.40;72.40;;;;;;5031796;28;20045;-73
2022/08/11 13:35:13;;;;;;;1.83;1.00;;;34.40;72.40;;;;;;5030669;28;20116;-75
2022/08/11 13:37:40;;;;;;;4.15;1.33;;;34.50;72.00;;;;;;5039934;28;20048;-74
2022/08/11 13:40:07;;;;;;;2.53;1.00;;;34.50;71.50;;;;;;5031980;28;20087;-74
2022/08/11 13:42:34;;;;;;;3.38;1.20;;;34.50;70.40;;;;;;5029461;28;20152;-74
2022/08/11 13:45:00;;;;;;;2.00;0.90;;;34.70;70.50;;;;;;5021287;28;20183;-76
2022/08/11 13:47:26;;;;;;;3.90;1.23;;;34.70;70.70;;;;;;5030848;28;20511;-77
2022/08/11 13:49:53;;;;;;;2.25;1.10;;;34.70;70.50;;;;;;5027506;28;20056;-75
2022/08/11 13:52:19;;;;;;;2.80;1.10;;;34.70;69.90;;;;;;5032725;28;20114;-76
2022/08/11 13:54:47;;;;;;;8.20;1.48;;;34.80;69.70;;;;;;5034683;28;20069;-75
2022/08/11 13:57:14;;;;;;;4.20;1.23;;;35.00;70.30;;;;;;5032559;28;20451;-76
2022/08/11 13:59:41;;;;;;;2.05;1.10;;;35.00;70.00;;;;;;5036716;28;20041;-76
2022/08/11 14:02:14;;;;;;;3.88;0.88;;;35.10;68.80;;;;;;5039378;28;20045;-75
2022/08/11 14:04:42;;;;;;;2.15;1.10;;;35.10;67.90;;;;;;5043894;28;20072;-76
2022/08/11 14:07:09;;;;;;;2.33;0.95;;;35.10;68.70;;;;;;5042645;28;20049;-74
2022/08/11 14:09:41;;;;;;;1.73;0.90;;;35.00;68.10;;;;;;5042728;28;20053;-76
2022/08/11 14:15:18;;;;;;;2.65;0.98;;;35.20;68.00;;;;;;5031563;28;21685;-76
2022/08/11 14:17:49;;;;;;;4.25;1.10;;;35.30;68.30;;;;;;5039102;28;20487;-75
2022/08/11 14:20:17;;;;;;;5.35;1.10;;;35.40;68.00;;;;;;5037940;28;20060;-76
2022/08/11 14:22:45;;;;;;;2.67;1.20;;;35.50;68.10;;;;;;5039581;28;20033;-75
2022/08/11 14:25:14;;;;;;;2.63;1.25;;;35.50;67.90;;;;;;5018087;28;20164;-75
2022/08/11 14:27:42;;;;;;;2.88;1.10;;;35.60;67.50;;;;;;5019377;28;20103;-75
2022/08/11 14:30:53;;;;;;;1.58;1.10;;;35.40;67.10;;;;;;5018773;28;20103;-75
2022/08/11 14:32:55;;;;;;;4.00;1.00;;;35.60;66.90;;;;;;5022996;28;20064;-75
2022/08/11 14:35:20;;;;;;;3.00;1.10;;;35.60;67.00;;;;;;5024976;28;20067;-77
2022/08/11 14:37:47;;;;;;;2.75;1.17;;;35.60;67.10;;;;;;5022791;28;20053;-75
2022/08/11 14:47:03;;;;;;;3.17;0.88;;;35.50;66.40;;;;;;5020368;28;20136;-75
2022/08/11 14:48:29;;;;;;;4.60;0.93;;;35.80;66.30;;;;;;5043630;28;20434;-76
2022/08/11 14:50:56;;;;;;;3.83;0.90;;;35.90;66.50;;;;;;5037173;28;20086;-76
2022/08/11 14:53:22;;;;;;;1.80;0.80;;;36.00;66.50;;;;;;5041607;28;20124;-75
2022/08/11 14:58:32;;;;;;;3.47;1.10;;;36.20;65.90;;;;;;5041094;28;20041;-76
2022/08/11 15:01:00;;;;;;;3.03;1.00;;;36.30;64.90;;;;;;5032243;28;20041;-77
2022/08/11 15:03:29;;;;;;;2.28;0.85;;;36.40;64.70;;;;;;5033030;28;20417;-77
2022/08/11 15:05:57;;;;;;;5.22;1.25;;;36.60;65.00;;;;;;5030737;28;20068;-76
2022/08/11 15:14:04;;;;;;;2.95;1.25;;;37.00;64.00;;;;;;5030392;28;20494;-76
2022/08/11 15:19:19;;;;;;;3.03;1.02;;;37.50;63.90;;;;;;5032749;28;20128;-76
2022/08/11 15:24:32;;;;;;;4.05;1.00;;;38.40;62.80;;;;;;5014283;28;20042;-76
2022/08/11 15:38:05;;;;;;;4.30;1.48;;;39.70;60.20;;;;;;5019036;28;20045;-76
2022/08/11 15:46:43;;;;;;;3.05;1.17;;;40.30;58.80;;;;;;5022509;28;20061;-76
2022/08/11 15:49:27;;;;;;;2.90;1.10;;;40.50;60.10;;;;;;5018582;28;20416;-77
2022/08/11 15:52:12;;;;;;;2.35;1.10;;;40.60;60.10;;;;;;5025990;28;20116;-76
2022/08/11 15:54:45;;;;;;;3.83;1.20;;;40.50;58.80;;;;;;5020167;28;20036;-76
2022/08/11 16:04:09;;;;;;;4.15;1.20;;;40.40;58.70;;;;;;5032711;28;20083;-76
2022/08/11 16:05:22;;;;;;;3.03;1.20;;;40.80;58.40;;;;;;5030647;28;20050;-76
2022/08/11 16:07:50;;;;;;;3.47;1.40;;;40.90;58.60;;;;;;5037377;28;20399;-76
2022/08/11 16:10:20;;;;;;;5.47;1.70;;;41.10;58.20;;;;;;5033928;28;20145;-76
2022/08/11 16:18:49;;;;;;;5.50;1.27;;;39.60;59.60;;;;;;5016381;28;20049;-75
2022/08/11 16:21:17;;;;;;;7.13;1.40;;;39.40;59.50;;;;;;5032873;28;20117;-76
2022/08/11 16:23:46;;;;;;;4.18;1.40;;;39.60;59.70;;;;;;5040522;28;20033;-76
2022/08/11 16:26:13;;;;;;;8.27;1.90;;;39.90;60.00;;;;;;5032734;28;20041;-76
2022/08/11 16:28:40;;;;;;;3.97;1.60;;;40.20;59.30;;;;;;5037343;28;20419;-76
2022/08/11 16:31:10;;;;;;;2.45;1.42;;;39.90;58.90;;;;;;5039405;28;20025;-76
2022/08/11 16:33:39;;;;;;;3.97;1.30;;;39.30;59.10;;;;;;5029126;28;20460;-75
2022/08/11 16:38:55;;;;;;;3.25;1.50;;;37.50;60.00;;;;;;5035640;28;20045;-74
2022/08/11 16:47:00;;;;;;;3.38;1.42;;;35.30;62.30;;;;;;5021209;28;20419;-76
2022/08/11 16:49:45;;;;;;;4.47;1.40;;;34.80;63.00;;;;;;5030314;28;20652;-78
2022/08/11 16:52:11;;;;;;;2.83;1.60;;;34.40;63.60;;;;;;5001903;28;20033;-75
2022/08/11 16:54:38;;;;;;;2.67;1.40;;;33.90;64.10;;;;;;5028450;28;20037;-76
2022/08/11 17:00:17;;;;;;;2.93;1.50;;;32.90;65.30;;;;;;5028539;28;20069;-75
2022/08/11 17:14:24;;;;;;;3.85;1.60;;;31.30;68.10;;;;;;5030487;28;20045;-75
2022/08/11 17:16:50;;;;;;;3.55;1.70;;;31.10;68.20;;;;;;5030624;28;20030;-76
2022/08/11 17:19:24;;;;;;;5.05;1.60;;;31.00;68.60;;;;;;5030530;28;20041;-76
2022/08/11 17:24:40;;;;;;;2.97;1.60;;;30.60;69.90;;;;;;5025121;28;19917;-74
2022/08/11 17:27:07;;;;;;;2.85;1.95;;;30.60;69.40;;;;;;5029657;28;20045;-77
2022/08/11 17:29:37;;;;;;;3.63;1.88;;;30.40;69.70;;;;;;5027376;28;20479;-75
2022/08/11 17:37:40;;;;;;;4.15;1.92;;;30.10;70.90;;;;;;5027486;28;20116;-75
2022/08/11 17:40:08;;;;;;;4.15;1.85;;;30.00;71.20;;;;;;5028593;28;20056;-76
2022/08/11 17:48:27;;;;;;;2.88;1.80;;;29.50;72.30;;;;;;5022264;28;20476;-78
2022/08/11 17:51:03;;;;;;;4.53;2.20;;;29.50;72.80;;;;;;5027192;28;20049;-76
2022/08/11 18:04:49;;;;;;;3.83;1.90;;;31.10;72.10;;;;;;5030854;28;20049;-75
